createdAt,value
2018-12-14T00:02:08.270Z,0.80
2018-12-14T00:08:02.371Z,0.80
2018-12-14T00:10:43.551Z,0.80
2018-12-14T00:13:25.490Z,0.80
2018-12-14T00:16:06.635Z,0.80
2018-12-14T00:18:48.303Z,0.80
2018-12-14T00:21:23.586Z,0.80
2018-12-14T00:23:58.627Z,0.80
2018-12-14T00:26:34.139Z,0.80
2018-12-14T00:29:13.309Z,0.80
2018-12-14T00:31:55.150Z,0.80
2018-12-14T00:34:25.558Z,0.70
2018-12-14T00:36:57.826Z,0.70
2018-12-14T00:39:29.894Z,0.70
2018-12-14T00:42:11.567Z,0.70
2018-12-14T00:44:53.340Z,0.70
2018-12-14T00:47:27.710Z,0.70
2018-12-14T00:50:09.570Z,0.70
2018-12-14T00:52:50.707Z,0.70
2018-12-14T00:55:25.124Z,0.70
2018-12-14T00:57:54.913Z,0.70
2018-12-14T01:00:26.872Z,0.70
2018-12-14T01:03:05.743Z,0.80
2018-12-14T01:05:47.330Z,0.80
2018-12-14T01:08:29.560Z,0.80
2018-12-14T01:11:01.914Z,0.80
2018-12-14T01:13:43.624Z,0.80
2018-12-14T01:16:18.804Z,0.70
2018-12-14T01:18:53.712Z,0.70
2018-12-14T01:21:35.439Z,0.70
2018-12-14T01:24:06.015Z,0.70
2018-12-14T01:26:47.310Z,0.70
2018-12-14T01:29:19.836Z,0.60
2018-12-14T01:32:01.571Z,0.60
2018-12-14T01:34:43.350Z,0.60
2018-12-14T01:37:25.166Z,0.70
2018-12-14T01:39:57.676Z,0.70
2018-12-14T01:42:39.024Z,0.70
2018-12-14T01:45:20.042Z,0.70
2018-12-14T01:48:01.852Z,0.70
2018-12-14T01:50:37.043Z,0.70
2018-12-14T01:53:18.629Z,0.70
2018-12-14T01:56:00.382Z,0.70
2018-12-14T01:58:32.982Z,0.70
2018-12-14T02:01:05.202Z,0.70
2018-12-14T02:03:39.909Z,0.70
2018-12-14T02:06:21.671Z,0.70
2018-12-14T02:09:00.775Z,0.70
2018-12-14T02:11:43.906Z,0.70
2018-12-14T02:14:25.763Z,0.70
2018-12-14T02:17:07.611Z,0.70
2018-12-14T02:19:41.930Z,0.70
2018-12-14T02:22:23.825Z,0.70
2018-12-14T02:24:54.289Z,0.70
2018-12-14T02:27:35.626Z,0.70
2018-12-14T02:30:19.899Z,0.70
2018-12-14T02:32:50.214Z,0.70
2018-12-14T02:35:28.683Z,0.60
2018-12-14T02:38:10.398Z,0.60
2018-12-14T02:40:45.496Z,0.60
2018-12-14T02:43:22.599Z,0.60
2018-12-14T02:46:04.503Z,0.60
2018-12-14T02:48:38.986Z,0.60
2018-12-14T02:51:20.727Z,0.60
2018-12-14T02:53:55.967Z,0.60
2018-12-14T02:56:37.627Z,0.60
2018-12-14T02:59:19.519Z,0.60
2018-12-14T03:02:01.400Z,0.60
2018-12-14T03:04:32.895Z,0.60
2018-12-14T03:07:14.632Z,0.70
2018-12-14T03:09:49.066Z,0.80
2018-12-14T03:12:30.531Z,0.70
2018-12-14T03:15:07.892Z,0.70
2018-12-14T03:17:38.023Z,0.60
2018-12-14T03:20:07.975Z,0.70
2018-12-14T03:22:49.507Z,0.70
2018-12-14T03:25:24.135Z,0.60
2018-12-14T03:28:00.895Z,0.60
2018-12-14T03:30:34.417Z,0.70
2018-12-14T03:33:04.311Z,0.70
2018-12-14T03:35:39.117Z,0.70
2018-12-14T03:38:20.765Z,0.70
2018-12-14T03:40:51.293Z,0.70
2018-12-14T03:43:32.579Z,0.70
2018-12-14T03:46:13.616Z,0.70
2018-12-14T03:48:48.051Z,0.70
2018-12-14T03:51:29.902Z,0.70
2018-12-14T03:54:05.107Z,0.60
2018-12-14T03:56:50.967Z,0.60
2018-12-14T03:59:22.554Z,0.60
2018-12-14T04:01:52.458Z,0.50
2018-12-14T04:04:33.690Z,0.50
2018-12-14T04:07:09.068Z,0.50
2018-12-14T04:09:40.957Z,0.50
2018-12-14T04:12:15.764Z,0.50
2018-12-14T04:14:56.716Z,0.50
2018-12-14T04:17:37.760Z,0.50
2018-12-14T04:20:09.344Z,0.50
2018-12-14T04:23:01.507Z,0.50
2018-12-14T04:25:42.898Z,0.50
2018-12-14T04:28:24.739Z,0.50
2018-12-14T04:31:05.704Z,0.50
2018-12-14T04:33:40.302Z,0.50
2018-12-14T04:36:21.455Z,0.50
2018-12-14T04:39:04.902Z,0.50
2018-12-14T04:41:36.077Z,0.40
2018-12-14T04:44:22.931Z,0.40
2018-12-14T04:47:07.126Z,0.40
2018-12-14T04:49:38.519Z,0.50
2018-12-14T04:52:19.851Z,0.40
2018-12-14T04:54:57.167Z,0.40
2018-12-14T04:57:45.009Z,0.40
2018-12-14T05:00:24.754Z,0.40
2018-12-14T05:02:59.747Z,0.40
2018-12-14T05:05:41.357Z,0.40
2018-12-14T05:08:23.344Z,0.40
2018-12-14T05:10:58.672Z,0.50
2018-12-14T05:13:33.891Z,0.50
2018-12-14T05:16:06.242Z,0.50
2018-12-14T05:18:47.800Z,0.60
2018-12-14T05:21:20.298Z,0.50
2018-12-14T05:23:52.170Z,0.50
2018-12-14T05:26:33.903Z,0.50
2018-12-14T05:29:15.934Z,0.50
2018-12-14T05:31:49.034Z,0.50
2018-12-14T05:34:30.580Z,0.60
2018-12-14T05:37:11.727Z,0.60
2018-12-14T05:39:43.143Z,0.60
2018-12-14T05:42:17.986Z,0.60
2018-12-14T05:44:50.030Z,0.60
2018-12-14T05:47:31.956Z,0.60
2018-12-14T05:50:04.914Z,0.60
2018-12-14T05:52:46.783Z,0.60
2018-12-14T05:55:23.163Z,0.60
2018-12-14T05:57:58.366Z,0.60
2018-12-14T06:00:30.624Z,0.60
2018-12-14T06:03:12.038Z,0.70
2018-12-14T06:05:51.191Z,0.70
2018-12-14T06:08:32.336Z,0.60
2018-12-14T06:11:04.813Z,0.60
2018-12-14T06:13:39.742Z,0.70
2018-12-14T06:16:12.016Z,0.70
2018-12-14T06:18:46.671Z,0.70
2018-12-14T06:21:17.131Z,0.70
2018-12-14T06:23:58.662Z,0.70
2018-12-14T06:36:58.579Z,0.70
2018-12-14T06:39:33.283Z,0.70
2018-12-14T06:42:08.722Z,0.70
2018-12-14T06:44:43.783Z,0.70
2018-12-14T06:47:18.671Z,0.60
2018-12-14T06:50:02.949Z,0.70
2018-12-14T06:52:33.178Z,0.60
2018-12-14T06:55:14.480Z,0.60
2018-12-14T06:57:55.524Z,0.60
2018-12-14T07:00:28.987Z,0.60
2018-12-14T07:03:00.983Z,0.60
2018-12-14T07:05:40.556Z,0.60
2018-12-14T07:08:15.730Z,0.60
2018-12-14T07:10:45.839Z,0.60
2018-12-14T07:16:27.702Z,0.60
2018-12-14T07:18:59.526Z,0.60
2018-12-14T07:21:31.635Z,0.60
2018-12-14T07:24:13.256Z,0.70
2018-12-14T07:26:46.101Z,0.70
2018-12-14T07:29:28.868Z,0.70
2018-12-14T07:32:10.682Z,0.70
2018-12-14T07:34:58.371Z,0.70
2018-12-14T07:37:40.295Z,0.70
2018-12-14T07:40:12.986Z,0.70
2018-12-14T07:42:45.042Z,0.70
2018-12-14T07:45:24.174Z,0.70
2018-12-14T07:48:11.857Z,0.70
2018-12-14T07:50:43.518Z,0.60
2018-12-14T07:53:25.275Z,0.70
2018-12-14T07:56:11.416Z,0.60
2018-12-14T07:58:52.675Z,0.60
2018-12-14T08:01:34.551Z,0.60
2018-12-14T08:04:09.077Z,0.60
2018-12-14T08:06:50.586Z,0.60
2018-12-14T08:09:22.235Z,0.60
2018-12-14T08:11:57.115Z,0.70
2018-12-14T08:14:27.451Z,0.70
2018-12-14T08:17:02.477Z,0.80
2018-12-14T08:19:34.402Z,0.80
2018-12-14T08:22:13.021Z,0.80
2018-12-14T08:24:54.718Z,0.80
2018-12-14T08:27:27.146Z,0.80
2018-12-14T08:29:59.295Z,0.80
2018-12-14T08:32:40.863Z,0.80
2018-12-14T08:35:21.905Z,0.90
2018-12-14T08:38:03.794Z,0.90
2018-12-14T08:40:36.299Z,0.90
2018-12-14T08:43:11.451Z,0.90
2018-12-14T08:45:46.597Z,0.80
2018-12-14T08:48:18.407Z,0.90
2018-12-14T08:50:50.575Z,0.80
2018-12-14T08:53:33.037Z,0.80
2018-12-14T08:56:14.932Z,0.80
2018-12-14T08:58:47.419Z,0.80
2018-12-14T09:01:29.004Z,0.80
2018-12-14T09:04:10.181Z,0.90
2018-12-14T09:06:45.459Z,0.90
2018-12-14T09:09:17.783Z,0.90
2018-12-14T09:11:59.015Z,0.90
2018-12-14T09:14:36.195Z,0.90
2018-12-14T09:17:17.863Z,0.90
2018-12-14T09:19:50.927Z,0.90
2018-12-14T09:22:32.772Z,1.00
2018-12-14T09:25:13.912Z,1.00
2018-12-14T09:27:48.434Z,1.00
2018-12-14T09:30:20.702Z,1.10
2018-12-14T09:32:50.711Z,1.10
2018-12-14T09:35:32.515Z,1.10
2018-12-14T09:38:14.215Z,1.00
2018-12-14T09:40:46.587Z,1.00
2018-12-14T09:43:23.420Z,1.00
2018-12-14T09:45:58.415Z,1.00
2018-12-14T09:48:40.253Z,1.10
2018-12-14T09:51:21.238Z,1.10
2018-12-14T09:53:55.787Z,1.00
2018-12-14T09:56:37.343Z,1.10
2018-12-14T09:59:09.902Z,1.20
2018-12-14T10:01:51.373Z,1.20
2018-12-14T10:04:26.627Z,1.20
2018-12-14T10:06:58.472Z,1.20
2018-12-14T10:09:33.282Z,1.20
2018-12-14T10:12:10.140Z,1.20
2018-12-14T10:14:42.464Z,1.20
2018-12-14T10:17:23.731Z,1.30
2018-12-14T10:19:56.310Z,1.30
2018-12-14T10:22:41.466Z,1.30
2018-12-14T10:25:12.372Z,1.30
2018-12-14T10:27:53.806Z,1.30
2018-12-14T10:30:25.546Z,1.30
2018-12-14T10:33:06.990Z,1.20
2018-12-14T10:35:49.157Z,1.20
2018-12-14T10:38:30.122Z,1.30
2018-12-14T10:41:00.722Z,1.30
2018-12-14T10:43:35.448Z,1.30
2018-12-14T10:46:10.669Z,1.30
2018-12-14T10:48:46.422Z,1.40
2018-12-14T10:51:18.463Z,1.40
2018-12-14T10:53:53.094Z,1.40
2018-12-14T10:56:30.010Z,1.30
2018-12-14T10:59:05.168Z,1.30
2018-12-14T11:01:42.909Z,1.30
2018-12-14T11:04:24.506Z,1.30
2018-12-14T11:07:10.876Z,1.40
2018-12-14T11:09:48.867Z,1.40
2018-12-14T11:12:22.081Z,1.40
2018-12-14T11:14:57.747Z,1.40
2018-12-14T11:17:39.594Z,1.40
2018-12-14T11:20:14.562Z,1.40
2018-12-14T11:22:57.312Z,1.40
2018-12-14T11:25:39.517Z,1.40
2018-12-14T11:28:21.430Z,1.40
2018-12-14T11:30:51.805Z,1.40
2018-12-14T11:33:23.952Z,1.40
2018-12-14T11:36:05.578Z,1.40
2018-12-14T11:38:47.523Z,1.30
2018-12-14T11:41:29.371Z,1.40
2018-12-14T11:44:06.502Z,1.30
2018-12-14T11:46:41.434Z,1.40
2018-12-14T11:49:16.501Z,1.30
2018-12-14T11:51:51.493Z,1.30
2018-12-14T11:54:23.770Z,1.40
2018-12-14T11:57:00.718Z,1.40
2018-12-14T11:59:34.051Z,1.40
2018-12-14T12:02:15.855Z,1.40
2018-12-14T12:04:56.960Z,1.30
2018-12-14T12:07:40.078Z,1.40
2018-12-14T12:10:15.690Z,1.40
2018-12-14T12:12:48.335Z,1.40
2018-12-14T12:15:29.779Z,1.40
2018-12-14T12:18:04.958Z,1.30
2018-12-14T12:20:39.980Z,1.40
2018-12-14T12:23:14.985Z,1.40
2018-12-14T12:25:53.014Z,1.30
2018-12-14T12:28:34.550Z,1.30
2018-12-14T12:31:15.628Z,1.30
2018-12-14T12:33:57.441Z,1.40
2018-12-14T12:36:30.050Z,1.30
2018-12-14T12:39:05.187Z,1.40
2018-12-14T12:41:48.721Z,1.40
2018-12-14T12:44:33.561Z,1.40
2018-12-14T12:47:13.206Z,1.40
2018-12-14T12:49:44.755Z,1.40
2018-12-14T12:52:23.466Z,1.30
2018-12-14T12:55:05.429Z,1.30
2018-12-14T12:57:46.811Z,1.30
2018-12-14T13:00:19.271Z,1.30
2018-12-14T13:02:54.160Z,1.30
2018-12-14T13:05:35.986Z,1.30
2018-12-14T13:08:17.218Z,1.30
2018-12-14T13:10:48.890Z,1.30
2018-12-14T13:13:27.595Z,1.30
2018-12-14T13:16:09.154Z,1.20
2018-12-14T13:18:43.613Z,1.20
2018-12-14T13:21:15.994Z,1.30
2018-12-14T13:26:31.876Z,1.20
2018-12-14T13:29:04.256Z,1.20
2018-12-14T13:31:45.736Z,1.20
2018-12-14T13:34:27.516Z,1.20
2018-12-14T13:37:09.707Z,1.20
2018-12-14T13:39:44.627Z,1.20
2018-12-14T13:42:16.827Z,1.20
2018-12-14T13:44:58.244Z,1.20
2018-12-14T13:47:29.980Z,1.20
2018-12-14T13:50:01.857Z,1.20
2018-12-14T13:52:44.472Z,1.20
2018-12-14T13:55:25.558Z,1.20
2018-12-14T13:58:08.630Z,1.10
2018-12-14T14:00:41.386Z,1.10
2018-12-14T14:03:25.450Z,1.10
2018-12-14T14:06:03.972Z,1.10
2018-12-14T14:08:45.736Z,1.10
2018-12-14T14:11:27.606Z,1.10
2018-12-14T14:13:57.323Z,1.10
2018-12-14T14:16:28.259Z,1.10
2018-12-14T14:18:59.536Z,1.10
2018-12-14T14:21:38.128Z,1.10
2018-12-14T14:24:13.462Z,1.00
2018-12-14T14:26:48.515Z,1.00
2018-12-14T14:29:18.853Z,1.00
2018-12-14T14:32:00.347Z,1.00
2018-12-14T14:34:38.819Z,1.00
2018-12-14T14:37:14.151Z,1.00
2018-12-14T14:39:44.401Z,1.00
2018-12-14T14:42:25.888Z,1.00
2018-12-14T14:45:00.418Z,1.00
2018-12-14T14:47:30.383Z,0.90
2018-12-14T14:50:02.208Z,0.90
2018-12-14T14:52:38.164Z,0.90
2018-12-14T20:31:25.485Z,1.10
2018-12-14T23:21:54.075Z,0.90
2018-12-14T23:34:00.490Z,1.00
